createdAt,value
2022-12-22T00:02:37.003Z,29.80
2022-12-22T00:05:31.614Z,30.20
2022-12-22T00:08:17.207Z,28.77
2022-12-22T00:11:06.155Z,30.27
2022-12-22T00:13:52.214Z,29.13
2022-12-22T00:16:38.955Z,29.97
2022-12-22T00:19:30.602Z,31.07
2022-12-22T00:22:16.973Z,29.00
2022-12-22T00:25:02.395Z,28.87
2022-12-22T00:27:48.738Z,28.37
2022-12-22T00:30:34.593Z,27.93
2022-12-22T00:33:23.387Z,29.20
2022-12-22T00:36:09.452Z,28.70
2022-12-22T00:38:54.664Z,29.27
2022-12-22T00:41:40.485Z,29.80
2022-12-22T00:44:25.548Z,30.13
2022-12-22T00:47:10.988Z,30.17
2022-12-22T00:50:00.042Z,28.50
2022-12-22T00:52:45.484Z,30.27
2022-12-22T00:55:32.532Z,30.80
2022-12-22T00:58:18.023Z,28.43
2022-12-22T01:01:03.365Z,27.67
2022-12-22T01:03:48.805Z,28.07
2022-12-22T01:06:35.272Z,28.93
2022-12-22T01:09:20.821Z,27.57
2022-12-22T01:12:06.335Z,29.77
2022-12-22T01:14:51.612Z,29.67
2022-12-22T01:17:37.141Z,29.53
2022-12-22T01:20:22.888Z,29.17
2022-12-22T01:23:09.618Z,29.60
2022-12-22T01:25:55.100Z,30.30
2022-12-22T01:28:40.781Z,29.73
2022-12-22T01:31:35.025Z,29.40
2022-12-22T01:34:20.541Z,29.40
2022-12-22T01:37:05.895Z,28.63
2022-12-22T01:39:52.612Z,29.50
2022-12-22T01:42:37.903Z,28.33
2022-12-22T01:45:37.876Z,26.97
2022-12-22T01:48:23.215Z,30.67
2022-12-22T01:51:08.680Z,27.57
2022-12-22T01:53:54.056Z,28.43
2022-12-22T01:56:40.663Z,28.47
2022-12-22T01:59:26.127Z,28.00
2022-12-22T02:02:11.355Z,28.63
2022-12-22T02:04:58.683Z,26.90
2022-12-22T02:07:56.392Z,27.43
2022-12-22T02:10:55.934Z,28.00
2022-12-22T02:13:49.056Z,25.77
2022-12-22T02:16:39.365Z,27.17
2022-12-22T02:19:30.534Z,26.37
2022-12-22T02:22:20.254Z,28.07
2022-12-22T02:25:09.140Z,26.57
2022-12-22T02:27:58.372Z,25.87
2022-12-22T02:30:44.976Z,26.67
2022-12-22T02:33:31.295Z,28.57
2022-12-22T02:36:21.732Z,28.77
2022-12-22T02:39:13.543Z,27.77
2022-12-22T02:42:08.985Z,27.40
2022-12-22T02:45:02.942Z,28.77
2022-12-22T02:47:52.686Z,29.90
2022-12-22T02:50:41.126Z,30.27
2022-12-22T02:53:27.466Z,29.00
2022-12-22T02:56:18.149Z,28.27
2022-12-22T02:59:03.247Z,28.23
2022-12-22T03:01:50.476Z,28.97
2022-12-22T03:04:35.708Z,30.83
2022-12-22T03:07:20.995Z,31.00
2022-12-22T03:10:06.464Z,30.07
2022-12-22T03:12:51.678Z,30.00
2022-12-22T03:15:37.260Z,30.77
2022-12-22T03:18:24.973Z,26.97
2022-12-22T03:21:10.286Z,29.57
2022-12-22T03:23:55.559Z,27.50
2022-12-22T03:26:23.213Z,28.23
2022-12-22T03:28:50.865Z,25.73
2022-12-22T03:31:18.484Z,27.07
2022-12-22T03:33:47.398Z,26.87
2022-12-22T03:36:14.948Z,28.00
2022-12-22T03:38:42.444Z,26.47
2022-12-22T03:41:29.992Z,28.10
2022-12-22T03:44:17.593Z,27.00
2022-12-22T03:46:45.266Z,26.97
2022-12-22T03:49:14.206Z,25.20
2022-12-22T03:51:43.779Z,26.87
2022-12-22T03:54:12.476Z,28.13
2022-12-22T03:56:40.313Z,27.73
2022-12-22T03:59:08.210Z,27.23
2022-12-22T04:01:39.364Z,26.10
2022-12-22T04:04:06.968Z,26.17
2022-12-22T04:06:35.887Z,25.67
2022-12-22T04:09:04.315Z,25.73
2022-12-22T04:11:49.803Z,26.77
2022-12-22T04:14:17.436Z,25.77
2022-12-22T04:16:45.286Z,26.67
2022-12-22T04:19:12.866Z,25.60
2022-12-22T04:21:41.797Z,27.20
2022-12-22T04:24:09.771Z,25.13
2022-12-22T04:26:37.361Z,27.10
2022-12-22T04:29:04.898Z,25.27
2022-12-22T04:31:32.521Z,25.80
2022-12-22T04:34:00.240Z,24.83
2022-12-22T04:36:28.016Z,25.97
2022-12-22T04:38:56.937Z,24.97
2022-12-22T04:41:24.479Z,24.83
2022-12-22T04:43:51.993Z,24.07
2022-12-22T04:46:19.649Z,25.10
2022-12-22T04:48:47.154Z,24.00
2022-12-22T04:51:14.722Z,24.37
2022-12-22T04:53:42.239Z,23.33
2022-12-22T04:56:11.105Z,23.40
2022-12-22T04:58:38.636Z,24.10
2022-12-22T05:01:10.966Z,24.50
2022-12-22T05:03:38.633Z,22.40
2022-12-22T05:06:06.801Z,24.80
2022-12-22T05:08:34.493Z,23.20
2022-12-22T05:11:02.866Z,25.93
2022-12-22T05:13:32.630Z,24.67
2022-12-22T05:16:05.096Z,24.27
2022-12-22T05:18:32.881Z,23.33
2022-12-22T05:21:03.630Z,23.30
2022-12-22T05:23:31.167Z,24.70
2022-12-22T05:25:58.724Z,25.83
2022-12-22T05:28:26.330Z,23.60
2022-12-22T05:30:56.167Z,24.47
2022-12-22T05:33:23.765Z,23.77
2022-12-22T05:35:51.303Z,24.83
2022-12-22T05:38:18.843Z,24.90
2022-12-22T05:40:46.352Z,24.77
2022-12-22T05:43:13.874Z,22.40
2022-12-22T05:45:41.504Z,22.83
2022-12-22T05:48:10.413Z,23.90
2022-12-22T05:50:38.002Z,24.03
2022-12-22T05:53:06.310Z,23.90
2022-12-22T05:55:34.557Z,21.67
2022-12-22T05:58:02.750Z,22.50
2022-12-22T06:00:31.521Z,21.27
2022-12-22T06:02:59.517Z,22.57
2022-12-22T06:05:28.751Z,22.07
2022-12-22T06:07:56.298Z,21.07
2022-12-22T06:10:23.987Z,21.43
2022-12-22T06:12:51.485Z,21.90
2022-12-22T06:15:19.271Z,21.57
2022-12-22T06:17:46.768Z,22.17
2022-12-22T06:20:15.277Z,20.73
2022-12-22T06:22:44.178Z,19.40
2022-12-22T06:25:17.718Z,21.23
2022-12-22T06:27:46.593Z,20.40
2022-12-22T06:30:14.739Z,20.33
2022-12-22T06:32:42.262Z,20.10
2022-12-22T06:35:10.653Z,20.10
2022-12-22T06:37:38.256Z,18.47
2022-12-22T06:40:08.943Z,18.37
2022-12-22T06:42:54.199Z,20.17
2022-12-22T06:45:21.899Z,20.53
2022-12-22T06:47:49.512Z,20.00
2022-12-22T06:50:17.087Z,20.23
2022-12-22T06:52:44.763Z,19.00
2022-12-22T06:55:13.687Z,18.37
2022-12-22T06:57:41.234Z,19.63
2022-12-22T07:00:10.033Z,19.33
2022-12-22T07:02:37.741Z,19.50
2022-12-22T07:05:05.927Z,19.77
2022-12-22T07:07:33.495Z,19.77
2022-12-22T07:10:01.061Z,20.10
2022-12-22T07:12:29.949Z,19.10
2022-12-22T07:14:57.454Z,20.53
2022-12-22T07:17:25.100Z,20.37
2022-12-22T07:19:52.677Z,19.73
2022-12-22T07:22:25.654Z,19.10
2022-12-22T07:24:57.024Z,19.67
2022-12-22T07:27:24.534Z,19.57
2022-12-22T07:29:53.392Z,18.90
2022-12-22T07:32:20.958Z,19.70
2022-12-22T07:34:48.500Z,18.93
2022-12-22T07:37:16.000Z,17.97
2022-12-22T07:39:43.558Z,19.10
2022-12-22T07:42:26.820Z,19.23
2022-12-22T07:44:55.703Z,17.17
2022-12-22T07:47:23.242Z,18.47
2022-12-22T07:50:08.503Z,18.97
2022-12-22T07:52:36.054Z,17.63
2022-12-22T07:55:03.554Z,19.20
2022-12-22T07:57:31.062Z,17.73
2022-12-22T07:59:59.941Z,18.77
2022-12-22T08:02:29.084Z,19.57
2022-12-22T08:04:59.862Z,18.47
2022-12-22T08:07:27.661Z,17.93
2022-12-22T08:09:55.167Z,17.30
2022-12-22T08:12:22.725Z,18.33
2022-12-22T08:14:50.231Z,19.10
2022-12-22T08:17:19.059Z,18.33
2022-12-22T08:19:48.578Z,18.17
2022-12-22T08:22:16.124Z,18.73
2022-12-22T08:24:43.626Z,18.20
2022-12-22T08:27:14.127Z,17.47
2022-12-22T08:29:44.739Z,18.27
2022-12-22T08:32:13.431Z,17.63
2022-12-22T08:34:42.531Z,16.13
2022-12-22T08:37:13.438Z,16.00
2022-12-22T08:39:41.559Z,15.73
2022-12-22T08:42:10.777Z,16.73
2022-12-22T08:44:38.914Z,16.10
2022-12-22T08:47:11.477Z,16.50
2022-12-22T08:49:43.781Z,15.43
2022-12-22T08:52:17.860Z,16.07
2022-12-22T08:54:46.134Z,15.77
2022-12-22T08:57:13.640Z,14.73
2022-12-22T08:59:41.166Z,14.47
2022-12-22T09:02:08.738Z,14.00
2022-12-22T09:04:37.747Z,13.97
2022-12-22T09:07:06.614Z,13.00
2022-12-22T09:09:35.368Z,12.93
2022-12-22T09:12:04.129Z,14.40
2022-12-22T09:14:32.693Z,13.93
2022-12-22T09:17:00.605Z,13.03
2022-12-22T09:19:28.438Z,12.50
2022-12-22T09:21:56.067Z,11.90
2022-12-22T09:24:25.125Z,11.63
2022-12-22T09:26:52.634Z,11.57
2022-12-22T09:29:20.305Z,11.33
2022-12-22T09:31:47.881Z,11.57
2022-12-22T09:34:18.450Z,10.93
2022-12-22T09:36:46.742Z,11.23
2022-12-22T09:39:14.871Z,12.47
2022-12-22T09:41:46.441Z,9.93
2022-12-22T09:44:17.750Z,10.90
2022-12-22T09:46:45.318Z,11.77
2022-12-22T09:49:15.180Z,10.10
2022-12-22T09:51:45.303Z,10.50
2022-12-22T09:54:13.723Z,10.63
2022-12-22T09:56:41.395Z,10.40
2022-12-22T09:59:12.554Z,11.50
2022-12-22T10:01:48.676Z,10.20
2022-12-22T10:04:23.883Z,10.17
2022-12-22T10:06:57.547Z,10.00
2022-12-22T10:09:48.829Z,9.87
2022-12-22T10:12:17.786Z,9.80
2022-12-22T10:14:48.150Z,9.83
2022-12-22T10:17:17.326Z,8.77
2022-12-22T10:19:45.469Z,8.90
2022-12-22T10:22:22.945Z,9.20
2022-12-22T10:24:50.528Z,9.20
2022-12-22T10:27:19.551Z,9.40
2022-12-22T10:29:50.999Z,7.60
2022-12-22T10:32:21.069Z,6.93
2022-12-22T10:35:00.652Z,6.10
2022-12-22T10:37:33.260Z,5.90
2022-12-22T10:40:00.980Z,5.20
2022-12-22T10:42:28.521Z,5.33
2022-12-22T10:44:59.011Z,4.20
2022-12-22T10:47:26.637Z,4.50
2022-12-22T10:52:30.050Z,4.30
2022-12-22T10:55:16.697Z,4.50
2022-12-22T10:57:44.236Z,4.60
2022-12-22T11:00:27.340Z,4.60
2022-12-22T11:02:56.509Z,5.07
2022-12-22T11:05:24.148Z,4.57
2022-12-22T11:07:51.761Z,4.60
2022-12-22T11:10:24.244Z,4.50
2022-12-22T11:13:02.450Z,5.37
2022-12-22T11:15:35.859Z,5.17
2022-12-22T11:18:13.413Z,4.57
2022-12-22T11:20:48.290Z,4.80
2022-12-22T11:23:19.145Z,4.97
2022-12-22T11:25:52.915Z,5.40
2022-12-22T11:28:34.428Z,4.97
2022-12-22T11:31:14.101Z,5.43
2022-12-22T11:33:52.083Z,5.33
2022-12-22T11:36:28.846Z,4.53
2022-12-22T11:39:01.293Z,4.20
2022-12-22T11:41:39.747Z,3.90
2022-12-22T11:44:19.217Z,3.57
2022-12-22T11:46:52.006Z,3.10
2022-12-22T11:49:32.589Z,2.57
2022-12-22T11:52:11.260Z,3.00
2022-12-22T11:54:50.137Z,2.87
2022-12-22T11:57:25.461Z,2.93
2022-12-22T11:59:59.648Z,2.27
2022-12-22T12:02:46.000Z,2.83
2022-12-22T12:05:28.049Z,3.03
2022-12-22T12:07:59.165Z,2.40
2022-12-22T12:10:29.222Z,2.50
2022-12-22T12:13:04.532Z,2.43
2022-12-22T12:15:34.199Z,2.37
2022-12-22T12:18:23.700Z,2.40
2022-12-22T12:20:59.455Z,2.23
2022-12-22T12:23:40.551Z,2.60
2022-12-22T12:26:12.165Z,2.23
2022-12-22T12:28:48.963Z,2.07
2022-12-22T12:31:24.304Z,2.10
2022-12-22T12:33:59.169Z,2.27
2022-12-22T12:36:32.193Z,1.67
2022-12-22T12:39:08.390Z,1.90
2022-12-22T12:41:54.221Z,2.70
2022-12-22T12:44:25.483Z,2.10
2022-12-22T12:47:16.031Z,1.87
2022-12-22T12:49:55.972Z,2.13
2022-12-22T12:53:09.505Z,1.80
2022-12-22T12:55:53.008Z,1.73
2022-12-22T12:58:48.412Z,1.63
2022-12-22T13:01:55.625Z,2.23
2022-12-22T13:05:16.003Z,2.63
2022-12-22T13:08:16.607Z,2.17
2022-12-22T13:10:47.108Z,2.07
2022-12-22T13:13:47.747Z,1.90
2022-12-22T13:16:37.846Z,2.20
2022-12-22T13:19:12.535Z,2.23
2022-12-22T13:21:52.954Z,2.10
2022-12-22T13:27:14.073Z,2.40
2022-12-22T13:29:44.249Z,2.87
2022-12-22T13:30:51.032Z,2.57
2022-12-22T13:32:20.517Z,3.03
2022-12-22T13:35:28.901Z,3.00
2022-12-22T13:37:42.427Z,2.27
2022-12-22T13:40:18.805Z,2.17
2022-12-22T13:42:48.480Z,2.67
2022-12-22T13:45:30.252Z,2.83
2022-12-22T13:47:58.445Z,3.40
2022-12-22T13:50:27.668Z,2.17
2022-12-22T13:52:56.766Z,2.93
2022-12-22T13:55:27.288Z,2.73
2022-12-22T13:57:58.714Z,2.40
2022-12-22T14:00:27.500Z,2.20
2022-12-22T14:02:55.181Z,2.93
2022-12-22T14:05:22.953Z,3.17
2022-12-22T14:08:03.504Z,2.83
2022-12-22T14:10:35.135Z,2.93
2022-12-22T14:13:06.968Z,2.27
2022-12-22T14:15:34.793Z,2.60
2022-12-22T14:18:02.447Z,2.70
2022-12-22T14:20:35.661Z,2.47
2022-12-22T14:23:07.301Z,2.50
2022-12-22T14:25:38.108Z,2.97
2022-12-22T14:28:08.096Z,3.10
2022-12-22T14:30:38.885Z,2.60
2022-12-22T14:33:18.438Z,2.37
2022-12-22T14:35:46.055Z,2.47
2022-12-22T14:38:24.356Z,2.10
2022-12-22T14:40:57.336Z,2.70
2022-12-22T14:43:30.483Z,2.80
2022-12-22T14:46:07.014Z,2.97
2022-12-22T14:48:36.348Z,2.90
2022-12-22T14:51:04.608Z,2.87
2022-12-22T14:53:38.815Z,2.80
2022-12-22T14:56:11.783Z,3.43
2022-12-22T14:58:41.806Z,2.17
2022-12-22T15:01:16.741Z,2.00
2022-12-22T15:03:44.884Z,2.53
2022-12-22T15:06:34.179Z,2.70
2022-12-22T15:10:04.223Z,2.20
2022-12-22T15:12:17.993Z,2.47
2022-12-22T15:14:47.700Z,1.93
2022-12-22T15:17:21.030Z,2.03
2022-12-22T15:19:48.746Z,2.00
2022-12-22T15:22:16.275Z,1.53
2022-12-22T15:24:43.892Z,1.47
2022-12-22T15:27:11.446Z,1.87
2022-12-22T15:29:40.337Z,1.30
2022-12-22T15:32:11.757Z,1.70
2022-12-22T15:34:39.456Z,1.80
2022-12-22T15:37:07.244Z,1.17
2022-12-22T15:39:34.874Z,1.20
2022-12-22T15:42:02.850Z,1.00
2022-12-22T15:44:36.810Z,3.90
2022-12-22T15:47:09.305Z,3.77
2022-12-22T15:49:37.032Z,1.30
2022-12-22T15:52:05.194Z,1.33
2022-12-22T15:54:33.781Z,1.00
2022-12-22T15:57:01.835Z,1.47
2022-12-22T15:59:30.210Z,1.53
2022-12-22T16:02:01.765Z,1.20
2022-12-22T16:04:31.186Z,1.10
2022-12-22T16:07:00.575Z,1.10
2022-12-22T16:09:32.525Z,1.00
2022-12-22T16:12:00.194Z,0.90
2022-12-22T16:14:29.291Z,1.00
2022-12-22T16:16:58.757Z,1.00
2022-12-22T16:19:26.280Z,1.00
2022-12-22T16:21:55.171Z,1.20
2022-12-22T16:24:27.777Z,1.13
2022-12-22T16:26:57.758Z,1.30
2022-12-22T16:29:25.909Z,1.13
2022-12-22T16:31:54.019Z,1.20
2022-12-22T16:34:21.565Z,1.60
2022-12-22T16:36:49.094Z,1.40
2022-12-22T16:39:17.927Z,1.40
2022-12-22T16:41:45.638Z,2.70
2022-12-22T16:47:06.611Z,1.60
2022-12-22T16:49:34.165Z,3.60
2022-12-22T16:52:01.794Z,1.80
2022-12-22T16:54:30.674Z,1.53
2022-12-22T16:56:58.307Z,1.30
2022-12-22T16:59:25.860Z,1.57
2022-12-22T17:01:54.712Z,1.40
2022-12-22T17:04:24.386Z,1.60
2022-12-22T17:06:53.235Z,1.53
2022-12-22T17:09:24.313Z,2.03
2022-12-22T17:11:54.695Z,2.00
2022-12-22T17:14:29.252Z,1.77
2022-12-22T17:16:56.826Z,1.60
2022-12-22T17:19:24.373Z,1.83
2022-12-22T17:21:53.989Z,2.63
2022-12-22T17:24:27.852Z,2.23
2022-12-22T17:26:57.763Z,1.63
2022-12-22T17:29:25.630Z,1.60
2022-12-22T17:31:56.498Z,3.47
2022-12-22T17:34:24.517Z,1.80
2022-12-22T17:36:52.602Z,1.87
2022-12-22T17:39:22.168Z,1.40
2022-12-22T17:41:56.315Z,1.70
2022-12-22T17:44:27.891Z,1.80
2022-12-22T17:46:55.662Z,2.07
2022-12-22T17:49:23.224Z,1.70
2022-12-22T17:51:50.986Z,1.50
2022-12-22T17:54:27.197Z,1.83
2022-12-22T17:56:57.405Z,2.20
2022-12-22T17:59:26.284Z,1.67
2022-12-22T18:01:54.462Z,1.40
2022-12-22T18:04:22.070Z,1.63
2022-12-22T18:06:49.827Z,1.80
2022-12-22T18:09:21.099Z,2.70
2022-12-22T18:11:49.241Z,3.00
2022-12-22T18:14:17.023Z,3.50
2022-12-22T18:16:45.983Z,2.73
2022-12-22T18:19:13.656Z,8.33
2022-12-22T18:21:41.173Z,3.60
2022-12-22T18:24:11.225Z,2.90
2022-12-22T18:26:38.806Z,2.13
2022-12-22T18:29:06.346Z,3.00
2022-12-22T18:31:34.222Z,3.10
2022-12-22T18:34:03.154Z,3.00
2022-12-22T18:36:32.527Z,2.47
2022-12-22T18:39:00.716Z,3.43
2022-12-22T18:41:30.955Z,2.90
2022-12-22T18:43:58.535Z,7.57
2022-12-22T18:46:26.209Z,13.40
2022-12-22T18:48:54.165Z,5.93
2022-12-22T18:51:25.675Z,5.50
2022-12-22T18:53:54.692Z,5.87
2022-12-22T18:56:22.257Z,4.60
2022-12-22T18:58:49.981Z,5.53
2022-12-22T19:01:20.215Z,4.10
2022-12-22T19:03:48.222Z,4.30
2022-12-22T19:06:17.229Z,4.73
2022-12-22T19:08:47.218Z,4.60
2022-12-22T19:11:16.436Z,4.40
2022-12-22T19:13:45.759Z,4.07
2022-12-22T19:16:15.057Z,5.93
2022-12-22T19:18:42.876Z,6.90
2022-12-22T19:21:13.238Z,6.07
2022-12-22T19:23:40.922Z,6.27
2022-12-22T19:26:17.398Z,5.10
2022-12-22T19:28:45.361Z,5.73
2022-12-22T19:31:21.895Z,5.73
2022-12-22T19:33:50.454Z,4.93
2022-12-22T19:36:19.544Z,3.33
2022-12-22T19:38:50.440Z,3.03
2022-12-22T19:41:30.480Z,3.07
2022-12-22T19:43:58.249Z,11.03
2022-12-22T19:46:27.108Z,10.30
2022-12-22T19:48:56.444Z,5.20
2022-12-22T19:51:24.065Z,3.67
2022-12-22T19:53:51.616Z,3.77
2022-12-22T19:56:24.629Z,3.10
2022-12-22T19:58:52.571Z,3.80
2022-12-22T20:01:20.232Z,4.47
2022-12-22T20:03:47.988Z,4.70
2022-12-22T20:06:17.543Z,9.60
2022-12-22T20:08:48.784Z,7.23
2022-12-22T20:11:18.459Z,3.73
2022-12-22T20:13:47.988Z,3.67
2022-12-22T20:16:16.951Z,4.47
2022-12-22T20:18:46.466Z,3.97
2022-12-22T20:21:15.500Z,4.37
2022-12-22T20:23:43.274Z,4.10
2022-12-22T20:26:15.563Z,4.30
2022-12-22T20:28:43.144Z,4.33
2022-12-22T20:31:14.687Z,4.73
2022-12-22T20:33:42.351Z,6.47
2022-12-22T20:36:17.831Z,6.17
2022-12-22T20:38:45.630Z,5.40
2022-12-22T20:41:13.179Z,4.80
2022-12-22T20:43:41.775Z,4.47
2022-12-22T20:46:15.271Z,6.00
2022-12-22T20:48:44.813Z,6.27
2022-12-22T20:51:15.568Z,4.50
2022-12-22T20:53:44.008Z,4.10
2022-12-22T20:56:23.123Z,4.40
2022-12-22T20:58:50.767Z,4.57
2022-12-22T21:01:20.061Z,4.97
2022-12-22T21:03:47.762Z,4.40
2022-12-22T21:06:26.347Z,4.63
2022-12-22T21:08:55.126Z,4.63
2022-12-22T21:11:23.021Z,5.20
2022-12-22T21:13:50.613Z,5.10
2022-12-22T21:16:23.095Z,5.20
2022-12-22T21:18:51.535Z,5.27
2022-12-22T21:21:19.256Z,5.30
2022-12-22T21:23:46.812Z,11.27
2022-12-22T21:26:20.750Z,5.87
2022-12-22T21:28:48.284Z,6.20
2022-12-22T21:31:15.900Z,4.93
2022-12-22T21:33:45.363Z,6.67
2022-12-22T21:36:18.894Z,5.93
2022-12-22T21:38:47.395Z,6.40
2022-12-22T21:41:14.986Z,6.20
2022-12-22T21:43:42.766Z,5.87
2022-12-22T21:46:12.700Z,5.30
2022-12-22T21:48:40.336Z,6.60
2022-12-22T21:51:11.883Z,10.07
2022-12-22T21:53:39.419Z,8.00
2022-12-22T21:56:14.225Z,7.23
2022-12-22T21:58:41.763Z,7.50
2022-12-22T22:01:12.277Z,6.97
2022-12-22T22:03:39.934Z,7.97
2022-12-22T22:06:09.092Z,6.83
2022-12-22T22:08:36.597Z,6.17
2022-12-22T22:11:04.155Z,7.47
2022-12-22T22:13:31.693Z,7.83
2022-12-22T22:15:59.270Z,7.27
2022-12-22T22:18:26.911Z,7.50
2022-12-22T22:20:54.421Z,7.37
2022-12-22T22:23:23.350Z,7.30
2022-12-22T22:25:57.616Z,7.20
2022-12-22T22:28:25.321Z,7.20
2022-12-22T22:30:53.231Z,6.80
2022-12-22T22:33:20.847Z,7.13
2022-12-22T22:35:48.541Z,6.70
2022-12-22T22:38:17.480Z,7.67
2022-12-22T22:40:47.777Z,7.63
2022-12-22T22:43:16.065Z,7.90
2022-12-22T22:45:43.848Z,8.20
2022-12-22T22:48:19.075Z,8.23
2022-12-22T22:50:46.734Z,7.43
2022-12-22T22:53:14.549Z,7.40
2022-12-22T22:55:42.066Z,8.43
2022-12-22T22:58:11.772Z,8.43
2022-12-22T23:00:39.807Z,6.50
2022-12-22T23:03:07.699Z,7.40
2022-12-22T23:05:35.359Z,8.07
2022-12-22T23:08:02.928Z,8.23
2022-12-22T23:10:32.716Z,6.67
2022-12-22T23:13:03.673Z,7.03
2022-12-22T23:15:32.523Z,6.77
2022-12-22T23:18:00.093Z,6.40
2022-12-22T23:20:28.641Z,7.20
2022-12-22T23:22:59.981Z,6.53
2022-12-22T23:25:27.534Z,6.13
2022-12-22T23:27:55.063Z,5.53
2022-12-22T23:30:22.596Z,6.80
2022-12-22T23:32:51.456Z,7.20
2022-12-22T23:35:19.017Z,6.93
2022-12-22T23:37:46.616Z,6.73
2022-12-22T23:43:01.802Z,7.50
2022-12-22T23:45:29.671Z,8.27
2022-12-22T23:47:58.592Z,7.40
2022-12-22T23:50:27.242Z,8.07
2022-12-22T23:52:54.878Z,7.67
2022-12-22T23:55:23.025Z,9.00
2022-12-22T23:57:51.194Z,7.40
